createdAt,value
2018-08-30T00:00:27.279Z,9.02
2018-08-30T00:01:33.057Z,8.10
2018-08-30T00:02:39.967Z,8.07
2018-08-30T00:03:45.668Z,7.18
2018-08-30T00:04:51.688Z,8.65
2018-08-30T00:05:57.724Z,7.90
2018-08-30T00:07:03.705Z,7.68
2018-08-30T00:08:09.813Z,8.25
2018-08-30T00:09:16.021Z,10.13
2018-08-30T00:10:22.391Z,7.62
2018-08-30T00:11:28.672Z,8.20
2018-08-30T00:12:34.670Z,8.68
2018-08-30T00:13:40.811Z,7.50
2018-08-30T00:14:46.652Z,8.95
2018-08-30T00:15:52.665Z,8.80
2018-08-30T00:16:58.787Z,8.52
2018-08-30T00:18:04.895Z,8.57
2018-08-30T00:19:10.897Z,8.10
2018-08-30T00:20:17.016Z,8.13
2018-08-30T00:21:22.677Z,7.90
2018-08-30T00:22:28.345Z,8.80
2018-08-30T00:23:34.389Z,9.10
2018-08-30T00:24:40.408Z,9.95
2018-08-30T00:25:46.417Z,8.43
2018-08-30T00:26:52.089Z,9.23
2018-08-30T00:27:58.115Z,8.07
2018-08-30T00:29:04.229Z,7.15
2018-08-30T00:30:10.234Z,9.25
2018-08-30T00:31:16.340Z,8.93
2018-08-30T00:32:22.580Z,8.35
2018-08-30T00:33:28.656Z,8.52
2018-08-30T00:34:34.664Z,8.45
2018-08-30T00:35:40.777Z,8.38
2018-08-30T00:36:46.781Z,8.82
2018-08-30T00:37:53.843Z,8.40
2018-08-30T00:38:59.723Z,8.50
2018-08-30T00:40:05.343Z,8.88
2018-08-30T00:41:11.491Z,8.10
2018-08-30T00:42:17.217Z,8.63
2018-08-30T00:43:22.872Z,9.18
2018-08-30T00:44:28.907Z,9.07
2018-08-30T00:45:35.125Z,8.68
2018-08-30T00:46:40.928Z,8.15
2018-08-30T00:47:46.709Z,9.80
2018-08-30T00:48:52.842Z,9.38
2018-08-30T00:49:58.579Z,9.05
2018-08-30T00:51:04.675Z,10.00
2018-08-30T00:52:10.665Z,9.02
2018-08-30T00:53:16.748Z,9.15
2018-08-30T00:54:22.859Z,9.02
2018-08-30T00:55:28.710Z,9.77
2018-08-30T00:56:34.754Z,9.35
2018-08-30T00:57:41.343Z,9.52
2018-08-30T00:58:47.376Z,8.05
2018-08-30T00:59:54.368Z,9.07
2018-08-30T01:01:00.055Z,9.52
2018-08-30T01:02:06.559Z,8.50
2018-08-30T01:03:12.175Z,8.98
2018-08-30T01:04:17.886Z,8.85
2018-08-30T01:05:23.933Z,9.48
2018-08-30T01:06:30.045Z,8.93
2018-08-30T01:07:36.032Z,8.13
2018-08-30T01:08:42.836Z,9.15
2018-08-30T01:09:49.012Z,9.48
2018-08-30T01:10:55.324Z,9.07
2018-08-30T01:12:01.447Z,8.55
2018-08-30T01:13:07.469Z,8.95
2018-08-30T01:14:13.709Z,9.18
2018-08-30T01:15:20.017Z,9.10
2018-08-30T01:16:25.778Z,8.07
2018-08-30T01:17:31.487Z,9.27
2018-08-30T01:18:37.526Z,9.95
2018-08-30T01:19:43.272Z,9.40
2018-08-30T01:20:49.338Z,9.40
2018-08-30T01:21:54.980Z,8.77
2018-08-30T01:23:00.344Z,9.07
2018-08-30T01:24:06.426Z,8.85
2018-08-30T01:25:12.185Z,9.05
2018-08-30T01:26:18.231Z,8.68
2018-08-30T01:27:24.237Z,8.75
2018-08-30T01:28:30.245Z,10.20
2018-08-30T01:29:36.246Z,9.15
2018-08-30T01:30:41.554Z,8.80
2018-08-30T01:31:46.953Z,9.35
2018-08-30T01:32:52.939Z,9.25
2018-08-30T01:33:58.583Z,9.85
2018-08-30T01:35:04.385Z,10.30
2018-08-30T01:36:10.076Z,10.00
2018-08-30T01:37:16.137Z,9.70
2018-08-30T01:38:22.251Z,10.10
2018-08-30T01:39:27.919Z,9.00
2018-08-30T01:40:33.914Z,9.52
2018-08-30T01:41:39.697Z,8.95
2018-08-30T01:42:45.752Z,9.18
2018-08-30T01:43:51.863Z,9.05
2018-08-30T01:44:57.970Z,10.00
2018-08-30T01:46:04.082Z,9.77
2018-08-30T01:47:09.743Z,9.00
2018-08-30T01:48:15.776Z,9.82
2018-08-30T01:49:21.884Z,8.90
2018-08-30T01:50:27.685Z,10.13
2018-08-30T01:51:33.671Z,9.05
2018-08-30T01:52:39.824Z,10.40
2018-08-30T01:53:46.002Z,10.27
2018-08-30T01:54:52.151Z,9.60
2018-08-30T01:55:58.123Z,9.32
2018-08-30T01:57:04.235Z,10.20
2018-08-30T01:58:10.332Z,9.50
2018-08-30T01:59:17.009Z,9.20
2018-08-30T02:00:23.171Z,9.38
2018-08-30T02:01:29.268Z,9.88
2018-08-30T02:02:35.275Z,9.77
2018-08-30T02:03:41.282Z,9.13
2018-08-30T02:04:47.306Z,10.02
2018-08-30T02:05:53.279Z,10.48
2018-08-30T02:06:59.427Z,9.55
2018-08-30T02:08:04.720Z,8.77
2018-08-30T02:09:10.802Z,9.68
2018-08-30T02:10:17.017Z,9.57
2018-08-30T02:11:23.029Z,9.55
2018-08-30T02:12:29.008Z,9.18
2018-08-30T02:13:35.160Z,8.93
2018-08-30T02:14:41.374Z,10.68
2018-08-30T02:15:47.412Z,9.40
2018-08-30T02:16:53.571Z,9.15
2018-08-30T02:17:59.217Z,9.30
2018-08-30T02:19:04.842Z,9.02
2018-08-30T02:20:10.158Z,9.88
2018-08-30T02:21:15.783Z,9.40
2018-08-30T02:22:21.843Z,9.55
2018-08-30T02:23:27.957Z,9.88
2018-08-30T02:24:34.052Z,9.77
2018-08-30T02:25:40.040Z,8.32
2018-08-30T02:26:46.043Z,9.02
2018-08-30T02:27:52.173Z,10.38
2018-08-30T02:28:58.179Z,9.20
2018-08-30T02:30:03.833Z,9.38
2018-08-30T02:31:09.871Z,9.50
2018-08-30T02:32:15.831Z,10.20
2018-08-30T02:33:21.655Z,9.25
2018-08-30T02:34:27.798Z,10.13
2018-08-30T02:35:33.897Z,8.70
2018-08-30T02:36:39.900Z,9.50
2018-08-30T02:37:45.914Z,9.32
2018-08-30T02:38:52.013Z,10.00
2018-08-30T02:39:58.038Z,9.65
2018-08-30T02:41:04.021Z,9.73
2018-08-30T02:42:10.167Z,8.85
2018-08-30T02:43:16.232Z,8.85
2018-08-30T02:44:22.339Z,8.10
2018-08-30T02:45:28.352Z,9.25
2018-08-30T02:46:34.341Z,9.82
2018-08-30T02:47:40.478Z,9.18
2018-08-30T02:48:46.472Z,9.05
2018-08-30T02:49:52.673Z,8.68
2018-08-30T02:50:58.032Z,9.50
2018-08-30T02:52:04.077Z,9.30
2018-08-30T02:53:10.174Z,9.38
2018-08-30T02:54:16.300Z,8.35
2018-08-30T02:55:22.045Z,8.70
2018-08-30T02:56:28.093Z,9.68
2018-08-30T02:57:34.113Z,9.35
2018-08-30T02:58:40.084Z,9.15
2018-08-30T02:59:46.089Z,8.52
2018-08-30T03:00:52.222Z,9.30
2018-08-30T03:01:58.318Z,9.80
2018-08-30T03:03:05.093Z,8.98
2018-08-30T03:04:11.176Z,8.70
2018-08-30T03:05:16.799Z,9.52
2018-08-30T03:06:22.849Z,9.38
2018-08-30T03:07:28.269Z,8.95
2018-08-30T03:08:34.250Z,8.98
2018-08-30T03:09:40.379Z,9.10
2018-08-30T03:10:46.459Z,9.07
2018-08-30T03:11:51.855Z,8.80
2018-08-30T03:12:57.843Z,8.65
2018-08-30T03:14:03.872Z,8.32
2018-08-30T03:15:09.280Z,9.48
2018-08-30T03:16:15.281Z,9.60
2018-08-30T03:17:21.270Z,10.10
2018-08-30T03:18:27.048Z,9.23
2018-08-30T03:19:33.071Z,9.57
2018-08-30T03:20:39.230Z,10.07
2018-08-30T03:21:45.308Z,9.35
2018-08-30T03:22:51.401Z,9.05
2018-08-30T03:23:57.371Z,9.80
2018-08-30T03:25:03.051Z,8.18
2018-08-30T03:26:09.084Z,8.65
2018-08-30T03:27:15.198Z,9.65
2018-08-30T03:28:21.212Z,10.02
2018-08-30T03:29:27.245Z,10.10
2018-08-30T03:30:33.231Z,10.55
2018-08-30T03:31:39.287Z,9.95
2018-08-30T03:32:45.331Z,9.52
2018-08-30T03:33:51.347Z,9.88
2018-08-30T03:34:58.053Z,9.70
2018-08-30T03:36:04.173Z,9.70
2018-08-30T03:37:10.841Z,9.80
2018-08-30T03:38:16.884Z,9.98
2018-08-30T03:39:22.718Z,9.25
2018-08-30T03:40:28.807Z,9.95
2018-08-30T03:41:34.686Z,9.73
2018-08-30T03:42:40.740Z,9.80
2018-08-30T03:43:46.732Z,9.13
2018-08-30T03:44:52.828Z,8.50
2018-08-30T03:45:58.935Z,9.30
2018-08-30T03:47:04.393Z,8.73
2018-08-30T03:48:10.627Z,9.88
2018-08-30T03:49:16.656Z,10.25
2018-08-30T03:50:22.751Z,10.07
2018-08-30T03:51:28.750Z,9.70
2018-08-30T03:52:34.886Z,10.35
2018-08-30T03:53:40.883Z,9.20
2018-08-30T03:54:46.993Z,11.10
2018-08-30T03:55:52.996Z,9.02
2018-08-30T03:56:59.088Z,9.98
2018-08-30T03:58:04.848Z,10.38
2018-08-30T03:59:10.879Z,10.00
2018-08-30T04:00:16.908Z,10.95
2018-08-30T04:01:22.910Z,10.45
2018-08-30T04:02:29.016Z,9.00
2018-08-30T04:03:35.022Z,9.02
2018-08-30T04:04:41.142Z,10.20
2018-08-30T04:05:51.727Z,10.45
2018-08-30T04:07:03.698Z,10.18
2018-08-30T04:08:18.492Z,10.60
2018-08-30T04:09:32.557Z,8.65
2018-08-30T04:10:46.270Z,10.77
2018-08-30T04:12:00.640Z,10.95
2018-08-30T04:13:14.789Z,11.02
2018-08-30T04:14:27.902Z,10.65
2018-08-30T04:15:40.784Z,10.38
2018-08-30T04:16:54.720Z,9.48
2018-08-30T04:18:10.415Z,10.38
2018-08-30T04:19:26.362Z,11.35
2018-08-30T04:20:42.614Z,10.20
2018-08-30T04:21:51.209Z,11.70
2018-08-30T04:22:57.342Z,10.38
2018-08-30T04:24:03.643Z,10.75
2018-08-30T04:25:09.968Z,11.15
2018-08-30T04:26:16.062Z,11.70
2018-08-30T04:27:22.080Z,12.37
2018-08-30T04:28:28.177Z,11.35
2018-08-30T04:29:34.795Z,11.77
2018-08-30T04:30:40.799Z,13.00
2018-08-30T04:31:46.927Z,11.75
2018-08-30T04:32:52.933Z,11.77
2018-08-30T04:33:58.915Z,12.20
2018-08-30T04:35:04.622Z,12.18
2018-08-30T04:36:10.729Z,12.73
2018-08-30T04:37:16.719Z,13.02
2018-08-30T04:38:22.727Z,12.77
2018-08-30T04:39:28.848Z,12.20
2018-08-30T04:40:36.245Z,12.48
2018-08-30T04:41:43.092Z,12.23
2018-08-30T04:42:49.267Z,12.40
2018-08-30T04:43:55.515Z,13.62
2018-08-30T04:45:01.623Z,11.88
2018-08-30T04:46:07.752Z,11.88
2018-08-30T04:47:14.163Z,13.05
2018-08-30T04:48:20.646Z,12.20
2018-08-30T04:49:26.678Z,13.00
2018-08-30T04:50:32.803Z,12.85
2018-08-30T04:51:39.289Z,14.02
2018-08-30T04:52:45.474Z,13.40
2018-08-30T04:53:51.985Z,12.60
2018-08-30T04:54:57.944Z,13.73
2018-08-30T04:56:14.240Z,13.80
2018-08-30T04:57:23.640Z,12.93
2018-08-30T04:58:29.744Z,13.60
2018-08-30T04:59:35.859Z,13.18
2018-08-30T05:00:41.629Z,13.55
2018-08-30T05:01:47.715Z,14.10
2018-08-30T05:02:53.644Z,13.98
2018-08-30T05:03:59.557Z,13.00
2018-08-30T05:05:05.321Z,14.43
2018-08-30T05:06:11.389Z,15.05
2018-08-30T05:07:17.407Z,12.50
2018-08-30T05:08:23.494Z,14.07
2018-08-30T05:09:29.338Z,14.23
2018-08-30T05:10:35.361Z,14.50
2018-08-30T05:11:41.450Z,12.82
2018-08-30T05:12:47.625Z,15.00
2018-08-30T05:13:53.901Z,13.43
2018-08-30T05:15:00.055Z,13.48
2018-08-30T05:16:05.702Z,13.20
2018-08-30T05:17:11.752Z,13.60
2018-08-30T05:18:17.750Z,13.75
2018-08-30T05:19:24.469Z,14.00
2018-08-30T05:20:30.483Z,13.43
2018-08-30T05:21:36.675Z,12.85
2018-08-30T05:22:42.810Z,13.55
2018-08-30T05:23:49.025Z,12.93
2018-08-30T05:24:55.151Z,14.00
2018-08-30T05:26:01.325Z,14.90
2018-08-30T05:27:07.434Z,14.68
2018-08-30T05:28:13.527Z,14.45
2018-08-30T05:29:19.531Z,14.60
2018-08-30T05:30:25.536Z,13.77
2018-08-30T05:31:31.505Z,13.65
2018-08-30T05:32:48.753Z,14.35
2018-08-30T05:34:08.456Z,13.90
2018-08-30T05:35:19.056Z,15.15
2018-08-30T05:36:25.444Z,14.68
2018-08-30T05:37:31.552Z,15.23
2018-08-30T05:38:37.075Z,15.07
2018-08-30T05:39:42.834Z,15.88
2018-08-30T05:40:48.530Z,16.15
2018-08-30T05:41:54.564Z,15.65
2018-08-30T05:43:00.651Z,15.68
2018-08-30T05:44:06.077Z,15.75
2018-08-30T05:45:12.185Z,15.90
2018-08-30T05:46:18.343Z,17.60
2018-08-30T05:47:24.485Z,17.60
2018-08-30T05:48:30.579Z,19.65
2018-08-30T05:49:36.683Z,18.27
2018-08-30T05:50:42.688Z,17.30
2018-08-30T05:51:48.818Z,18.75
2018-08-30T05:52:54.981Z,19.80
2018-08-30T05:54:01.020Z,21.75
2018-08-30T05:55:06.661Z,23.25
2018-08-30T05:56:12.484Z,22.08
2018-08-30T05:57:18.639Z,24.05
2018-08-30T05:58:24.615Z,25.17
2018-08-30T05:59:30.739Z,24.60
2018-08-30T06:00:36.767Z,24.42
2018-08-30T06:01:42.740Z,25.12
2018-08-30T06:02:48.920Z,24.30
2018-08-30T06:03:55.050Z,26.80
2018-08-30T06:05:01.084Z,24.40
2018-08-30T06:06:07.074Z,25.00
2018-08-30T06:07:13.158Z,27.83
2018-08-30T06:08:20.486Z,26.20
2018-08-30T06:09:26.828Z,27.90
2018-08-30T06:10:32.640Z,27.58
2018-08-30T06:11:38.738Z,26.55
2018-08-30T06:12:45.291Z,28.23
2018-08-30T06:13:51.451Z,28.75
2018-08-30T06:14:57.555Z,27.60
2018-08-30T06:16:04.201Z,27.65
2018-08-30T06:17:10.291Z,27.70
2018-08-30T06:18:16.325Z,30.25
2018-08-30T06:19:22.508Z,29.95
2018-08-30T06:20:28.626Z,29.10
2018-08-30T06:21:34.617Z,29.30
2018-08-30T06:22:40.471Z,30.75
2018-08-30T06:23:46.287Z,31.25
2018-08-30T06:24:52.836Z,29.10
2018-08-30T06:25:59.023Z,30.17
2018-08-30T06:27:04.797Z,29.98
2018-08-30T06:28:11.024Z,30.17
2018-08-30T06:29:18.267Z,27.87
2018-08-30T06:30:24.596Z,28.17
2018-08-30T06:31:30.716Z,27.55
2018-08-30T06:32:36.502Z,27.33
2018-08-30T06:33:42.536Z,27.02
2018-08-30T06:34:48.692Z,23.98
2018-08-30T06:35:55.096Z,24.77
2018-08-30T06:37:01.024Z,24.05
2018-08-30T06:38:07.091Z,24.58
2018-08-30T06:39:13.256Z,25.05
2018-08-30T06:40:19.469Z,22.95
2018-08-30T06:41:25.498Z,24.20
2018-08-30T06:42:31.584Z,22.98
2018-08-30T06:43:37.567Z,22.90
2018-08-30T06:44:43.576Z,20.62
2018-08-30T06:45:50.412Z,22.67
2018-08-30T06:46:56.373Z,20.52
2018-08-30T06:48:02.528Z,20.98
2018-08-30T06:49:08.632Z,22.15
2018-08-30T06:50:14.633Z,19.45
2018-08-30T06:51:20.652Z,20.60
2018-08-30T06:52:26.629Z,20.50
2018-08-30T06:53:32.672Z,19.33
2018-08-30T06:54:38.656Z,18.48
2018-08-30T06:55:44.727Z,19.15
2018-08-30T06:56:50.771Z,18.80
2018-08-30T06:57:56.897Z,18.60
2018-08-30T06:59:02.988Z,17.98
2018-08-30T07:00:08.807Z,17.70
2018-08-30T07:01:14.775Z,18.75
2018-08-30T07:02:20.801Z,18.52
2018-08-30T07:03:26.800Z,18.25
2018-08-30T07:04:32.907Z,17.33
2018-08-30T07:05:39.036Z,18.55
2018-08-30T07:06:45.183Z,16.80
2018-08-30T07:07:51.584Z,18.83
2018-08-30T07:08:57.647Z,17.48
2018-08-30T07:10:03.770Z,17.33
2018-08-30T07:11:09.878Z,19.05
2018-08-30T07:12:15.628Z,18.67
2018-08-30T07:13:21.617Z,18.58
2018-08-30T07:14:27.865Z,17.80
2018-08-30T07:15:33.967Z,18.02
2018-08-30T07:16:40.004Z,18.62
2018-08-30T07:17:46.009Z,17.37
2018-08-30T07:18:52.561Z,17.08
2018-08-30T07:19:58.607Z,17.73
2018-08-30T07:21:04.659Z,17.83
2018-08-30T07:22:10.856Z,18.45
2018-08-30T07:23:17.163Z,17.75
2018-08-30T07:24:26.454Z,19.12
2018-08-30T07:25:32.765Z,17.65
2018-08-30T07:26:38.950Z,16.65
2018-08-30T07:27:50.699Z,16.67
2018-08-30T07:28:57.800Z,18.05
2018-08-30T07:30:03.946Z,17.87
2018-08-30T07:31:10.139Z,17.60
2018-08-30T07:32:16.976Z,16.25
2018-08-30T07:33:28.892Z,16.52
2018-08-30T07:34:34.908Z,16.27
2018-08-30T07:35:41.294Z,15.32
2018-08-30T07:36:52.857Z,16.85
2018-08-30T07:38:04.843Z,17.90
2018-08-30T07:39:10.573Z,17.60
2018-08-30T07:40:16.585Z,17.42
2018-08-30T07:41:22.579Z,17.58
2018-08-30T07:42:28.716Z,18.50
2018-08-30T07:43:34.754Z,18.10
2018-08-30T07:44:40.968Z,19.50
2018-08-30T07:45:47.228Z,16.60
2018-08-30T07:46:53.332Z,17.95
2018-08-30T07:47:59.549Z,17.12
2018-08-30T07:49:05.213Z,18.83
2018-08-30T07:50:11.253Z,17.67
2018-08-30T07:51:16.892Z,18.80
2018-08-30T07:52:22.968Z,20.73
2018-08-30T07:53:28.956Z,17.80
2018-08-30T07:54:35.125Z,19.12
2018-08-30T07:55:41.404Z,19.42
2018-08-30T07:56:47.602Z,20.17
2018-08-30T07:57:53.711Z,19.65
2018-08-30T07:59:00.160Z,21.42
2018-08-30T08:00:05.395Z,21.73
2018-08-30T08:01:11.344Z,21.77
2018-08-30T08:02:17.421Z,20.67
2018-08-30T08:03:23.933Z,22.40
2018-08-30T08:04:30.067Z,20.10
2018-08-30T08:05:36.253Z,23.62
2018-08-30T08:06:43.083Z,22.75
2018-08-30T08:07:49.192Z,24.37
2018-08-30T08:08:55.287Z,23.38
2018-08-30T08:10:01.304Z,24.37
2018-08-30T08:11:07.405Z,24.42
2018-08-30T08:12:13.587Z,23.80
2018-08-30T08:13:29.001Z,24.70
2018-08-30T08:14:35.010Z,24.00
2018-08-30T08:15:41.147Z,25.90
2018-08-30T08:16:47.115Z,24.77
2018-08-30T08:17:53.251Z,25.95
2018-08-30T08:18:59.368Z,26.85
2018-08-30T08:20:05.332Z,25.88
2018-08-30T08:21:11.359Z,25.65
2018-08-30T08:22:17.470Z,26.73
2018-08-30T08:23:23.580Z,27.58
2018-08-30T08:24:29.699Z,28.45
2018-08-30T08:25:36.386Z,27.67
2018-08-30T08:26:42.518Z,28.33
2018-08-30T08:27:48.643Z,29.77
2018-08-30T08:28:54.373Z,28.98
2018-08-30T08:30:00.412Z,29.80
2018-08-30T08:31:06.441Z,30.33
2018-08-30T08:32:12.448Z,28.90
2018-08-30T08:33:18.556Z,30.73
2018-08-30T08:34:24.551Z,32.10
2018-08-30T08:35:30.663Z,29.92
2018-08-30T08:36:36.420Z,31.95
2018-08-30T08:37:42.484Z,31.85
2018-08-30T08:38:48.471Z,31.23
2018-08-30T08:39:54.595Z,32.20
2018-08-30T08:41:00.334Z,32.17
2018-08-30T08:42:06.387Z,32.20
2018-08-30T08:43:12.164Z,32.10
2018-08-30T08:44:18.316Z,32.67
2018-08-30T08:45:24.297Z,28.40
2018-08-30T08:46:30.052Z,30.00
2018-08-30T08:47:35.800Z,30.80
2018-08-30T08:48:41.826Z,31.85
2018-08-30T08:49:48.516Z,28.38
2018-08-30T08:50:54.544Z,30.10
2018-08-30T08:52:00.541Z,31.52
2018-08-30T08:53:06.639Z,27.58
2018-08-30T08:54:12.647Z,29.27
2018-08-30T08:55:18.773Z,26.73
2018-08-30T08:56:24.752Z,25.92
2018-08-30T08:57:30.863Z,23.48
2018-08-30T08:58:36.880Z,24.12
2018-08-30T08:59:42.988Z,20.48
2018-08-30T09:00:49.108Z,22.30
2018-08-30T09:01:55.087Z,21.48
2018-08-30T09:03:01.205Z,22.33
2018-08-30T09:04:07.014Z,22.23
2018-08-30T09:05:13.018Z,20.40
2018-08-30T09:06:19.015Z,19.45
2018-08-30T09:07:25.132Z,22.55
2018-08-30T09:08:31.331Z,23.35
2018-08-30T09:09:37.472Z,21.55
2018-08-30T09:10:43.543Z,21.87
2018-08-30T09:11:49.647Z,21.87
2018-08-30T09:12:55.759Z,22.98
2018-08-30T09:14:01.880Z,21.30
2018-08-30T09:15:07.532Z,21.87
2018-08-30T09:16:13.564Z,21.17
2018-08-30T09:17:19.559Z,20.58
2018-08-30T09:18:25.749Z,22.65
2018-08-30T09:19:31.983Z,22.90
2018-08-30T09:20:38.102Z,21.98
2018-08-30T09:21:44.947Z,19.58
2018-08-30T09:23:00.123Z,20.67
2018-08-30T09:24:19.991Z,22.13
2018-08-30T09:25:36.096Z,20.52
2018-08-30T09:26:53.917Z,17.52
2018-08-30T09:28:18.278Z,20.60
2018-08-30T09:29:36.842Z,20.98
2018-08-30T09:30:52.729Z,20.23
2018-08-30T09:32:09.599Z,21.90
2018-08-30T09:33:28.705Z,21.08
2018-08-30T09:34:43.289Z,21.10
2018-08-30T09:36:04.257Z,20.80
2018-08-30T09:37:26.253Z,21.77
2018-08-30T09:38:48.542Z,20.90
2018-08-30T09:40:09.940Z,19.10
2018-08-30T09:41:30.953Z,19.45
2018-08-30T09:42:48.290Z,20.73
2018-08-30T09:44:10.147Z,20.55
2018-08-30T09:45:31.108Z,19.23
2018-08-30T09:46:52.469Z,19.37
2018-08-30T09:48:13.752Z,19.67
2018-08-30T09:49:32.161Z,19.85
2018-08-30T09:50:53.043Z,19.23
2018-08-30T09:52:10.601Z,18.50
2018-08-30T09:53:32.715Z,18.92
2018-08-30T09:54:56.046Z,19.60
2018-08-30T09:56:19.220Z,18.85
2018-08-30T09:57:40.687Z,16.65
2018-08-30T09:59:01.490Z,17.87
2018-08-30T10:00:24.581Z,18.73
2018-08-30T10:01:51.397Z,19.10
2018-08-30T10:03:11.844Z,18.67
2018-08-30T10:04:33.663Z,19.50
2018-08-30T10:05:50.923Z,18.87
2018-08-30T10:07:07.345Z,19.25
2018-08-30T10:08:31.100Z,18.58
2018-08-30T10:09:51.112Z,19.90
2018-08-30T10:11:12.593Z,19.15
2018-08-30T10:12:30.516Z,17.58
2018-08-30T10:13:46.112Z,17.30
2018-08-30T10:15:01.646Z,18.30
2018-08-30T10:16:18.296Z,16.85
2018-08-30T10:19:10.408Z,17.87
2018-08-30T10:20:34.780Z,19.30
2018-08-30T10:21:57.472Z,18.50
2018-08-30T10:23:22.960Z,18.25
2018-08-30T10:24:44.969Z,17.35
2018-08-30T10:26:06.876Z,17.85
2018-08-30T10:27:30.783Z,17.12
2018-08-30T10:28:53.641Z,15.65
2018-08-30T10:30:12.889Z,16.33
2018-08-30T10:31:30.489Z,16.02
2018-08-30T10:32:52.969Z,14.82
2018-08-30T10:34:14.892Z,14.55
2018-08-30T10:35:34.999Z,14.38
2018-08-30T10:36:58.004Z,13.75
2018-08-30T10:38:19.681Z,12.30
2018-08-30T10:39:42.739Z,11.93
2018-08-30T10:41:04.988Z,11.65
2018-08-30T10:42:26.021Z,11.52
2018-08-30T10:43:48.558Z,10.60
2018-08-30T10:57:59.763Z,8.98
2018-08-30T10:59:19.107Z,9.00
2018-08-30T11:00:38.568Z,8.85
2018-08-30T11:01:58.289Z,9.52
2018-08-30T11:03:22.384Z,9.38
2018-08-30T11:04:42.336Z,9.02
2018-08-30T11:06:02.627Z,8.93
2018-08-30T11:07:21.443Z,8.32
2018-08-30T11:08:41.660Z,8.82
2018-08-30T11:10:01.360Z,9.45
2018-08-30T11:11:21.046Z,9.55
2018-08-30T11:12:44.912Z,9.35
2018-08-30T11:14:06.201Z,9.23
2018-08-30T11:15:25.660Z,9.35
2018-08-30T11:16:46.271Z,9.20
2018-08-30T11:18:10.264Z,9.52
2018-08-30T11:19:26.881Z,9.98
2018-08-30T11:20:44.916Z,9.38
2018-08-30T11:22:03.325Z,10.02
2018-08-30T11:23:20.773Z,10.50
2018-08-30T11:24:38.611Z,10.15
2018-08-30T11:25:54.216Z,8.95
2018-08-30T11:27:11.661Z,10.50
2018-08-30T11:28:28.235Z,9.25
2018-08-30T11:29:43.051Z,8.73
2018-08-30T11:31:02.193Z,10.32
2018-08-30T11:32:23.412Z,9.55
2018-08-30T11:33:45.716Z,8.80
2018-08-30T11:35:02.936Z,8.55
2018-08-30T11:36:19.741Z,8.75
2018-08-30T11:37:39.566Z,8.68
2018-08-30T11:38:55.326Z,9.18
2018-08-30T11:40:12.034Z,7.95
2018-08-30T11:41:28.659Z,8.68
2018-08-30T11:42:44.703Z,7.82
2018-08-30T11:44:02.639Z,7.40
2018-08-30T11:45:24.206Z,7.70
2018-08-30T11:46:33.792Z,8.52
2018-08-30T11:47:51.597Z,8.25
2018-08-30T11:49:12.373Z,8.20
2018-08-30T11:50:32.372Z,8.15
2018-08-30T11:51:55.070Z,8.00
2018-08-30T11:53:18.547Z,7.07
2018-08-30T11:54:38.194Z,7.90
2018-08-30T11:55:58.751Z,9.25
2018-08-30T11:57:20.441Z,8.80
2018-08-30T11:58:41.718Z,8.43
2018-08-30T12:00:01.861Z,8.90
2018-08-30T12:01:25.855Z,9.23
2018-08-30T12:02:48.456Z,8.70
2018-08-30T12:04:09.618Z,8.32
2018-08-30T12:05:30.924Z,8.70
2018-08-30T12:06:52.807Z,8.35
2018-08-30T12:08:13.888Z,8.50
2018-08-30T12:09:34.718Z,7.72
2018-08-30T12:10:56.228Z,8.65
2018-08-30T12:12:16.018Z,9.05
2018-08-30T12:13:36.197Z,10.20
2018-08-30T12:14:55.970Z,8.55
2018-08-30T12:16:15.920Z,10.10
2018-08-30T12:17:33.542Z,9.30
2018-08-30T12:18:51.636Z,9.23
2018-08-30T12:20:12.344Z,10.02
2018-08-30T12:21:33.830Z,9.63
2018-08-30T12:22:53.737Z,9.75
2018-08-30T12:24:10.705Z,9.27
2018-08-30T12:25:31.677Z,9.27
2018-08-30T12:26:54.557Z,9.55
2018-08-30T12:28:15.965Z,10.00
2018-08-30T12:29:35.788Z,9.45
2018-08-30T12:30:55.053Z,9.57
2018-08-30T12:32:16.490Z,9.52
2018-08-30T12:33:39.423Z,10.80
2018-08-30T12:34:58.917Z,9.75
2018-08-30T12:36:20.432Z,10.90
2018-08-30T12:37:44.635Z,10.57
2018-08-30T12:39:04.803Z,10.15
2018-08-30T12:40:25.058Z,12.27
2018-08-30T12:41:45.802Z,11.25
2018-08-30T12:43:04.911Z,10.98
2018-08-30T12:44:25.992Z,11.70
2018-08-30T12:45:46.038Z,12.32
2018-08-30T12:47:06.531Z,12.57
2018-08-30T12:48:27.781Z,12.15
2018-08-30T12:49:48.526Z,14.32
2018-08-30T12:51:10.976Z,13.40
2018-08-30T12:52:31.397Z,13.27
2018-08-30T12:53:48.753Z,12.82
2018-08-30T12:55:04.916Z,13.32
2018-08-30T12:56:24.900Z,12.80
2018-08-30T12:57:46.569Z,14.75
2018-08-30T12:59:08.270Z,13.35
2018-08-30T13:00:27.842Z,13.85
2018-08-30T13:01:43.508Z,14.30
2018-08-30T13:03:04.344Z,13.23
2018-08-30T13:04:25.123Z,14.68
2018-08-30T13:05:44.045Z,13.60
2018-08-30T13:07:05.020Z,14.15
2018-08-30T13:08:25.939Z,14.05
2018-08-30T13:09:44.724Z,12.90
2018-08-30T13:11:05.194Z,13.57
2018-08-30T13:12:24.806Z,13.70
2018-08-30T13:13:47.400Z,13.52
2018-08-30T13:15:09.430Z,14.55
2018-08-30T13:16:29.760Z,14.48
2018-08-30T13:17:48.232Z,13.20
2018-08-30T13:19:05.954Z,15.15
2018-08-30T13:20:26.333Z,13.98
2018-08-30T13:21:44.413Z,13.10
2018-08-30T13:23:03.851Z,13.82
2018-08-30T13:24:24.446Z,13.98
2018-08-30T13:25:45.797Z,13.70
2018-08-30T13:27:09.028Z,12.35
2018-08-30T13:28:29.061Z,13.48
2018-08-30T13:29:49.660Z,13.82
2018-08-30T13:31:12.997Z,15.20
2018-08-30T13:32:34.982Z,13.40
2018-08-30T13:33:53.853Z,13.10
2018-08-30T13:35:11.588Z,13.57
2018-08-30T13:36:30.664Z,14.18
2018-08-30T13:37:52.253Z,13.65
2018-08-30T13:39:15.704Z,12.52
2018-08-30T13:40:39.125Z,12.07
2018-08-30T13:42:05.179Z,10.85
2018-08-30T13:43:26.805Z,12.90
2018-08-30T13:44:48.867Z,11.65
2018-08-30T13:46:11.412Z,11.48
2018-08-30T13:47:33.308Z,12.00
2018-08-30T13:48:54.946Z,11.60
2018-08-30T13:50:18.000Z,11.38
2018-08-30T13:51:39.613Z,13.62
2018-08-30T13:53:00.146Z,13.50
2018-08-30T13:54:21.707Z,13.43
2018-08-30T13:55:43.569Z,11.90
2018-08-30T13:57:08.567Z,12.85
2018-08-30T13:58:29.693Z,14.05
2018-08-30T13:59:53.191Z,13.07
2018-08-30T14:01:13.723Z,12.43
2018-08-30T14:02:36.943Z,12.88
2018-08-30T14:03:55.532Z,13.55
2018-08-30T14:05:17.264Z,12.73
2018-08-30T14:06:37.888Z,12.77
2018-08-30T14:07:59.701Z,14.10
2018-08-30T14:09:24.129Z,13.80
2018-08-30T14:10:45.711Z,13.38
2018-08-30T14:12:07.821Z,13.70
2018-08-30T14:13:32.300Z,13.75
2018-08-30T14:14:57.218Z,12.52
2018-08-30T14:16:20.385Z,13.65
2018-08-30T14:17:42.799Z,13.95
2018-08-30T14:19:02.446Z,12.00
2018-08-30T14:20:23.967Z,12.30
2018-08-30T14:21:44.438Z,13.18
2018-08-30T14:23:09.852Z,14.15
2018-08-30T14:24:36.746Z,13.38
2018-08-30T14:26:01.488Z,13.50
2018-08-30T14:27:23.678Z,12.23
2018-08-30T14:28:46.609Z,14.02
2018-08-30T14:30:09.469Z,13.20
2018-08-30T14:31:27.960Z,12.57
2018-08-30T14:32:54.019Z,13.25
2018-08-30T14:34:14.442Z,12.13
2018-08-30T14:35:37.597Z,12.60
2018-08-30T14:36:57.788Z,11.52
2018-08-30T14:38:18.700Z,11.90
2018-08-30T14:39:38.363Z,10.82
2018-08-30T14:40:58.181Z,12.50
2018-08-30T14:42:18.987Z,11.02
2018-08-30T14:43:40.021Z,11.10
2018-08-30T14:45:02.838Z,10.55
2018-08-30T14:46:26.825Z,9.75
2018-08-30T14:47:47.592Z,9.77
2018-08-30T14:49:07.724Z,9.68
2018-08-30T14:50:27.964Z,9.93
2018-08-30T14:51:47.084Z,9.80
2018-08-30T14:53:08.706Z,8.60
2018-08-30T14:54:28.222Z,8.20
2018-08-30T14:55:48.880Z,9.02
2018-08-30T14:57:09.907Z,8.77
2018-08-30T14:58:34.078Z,10.38
2018-08-30T14:59:54.902Z,8.35
2018-08-30T15:01:04.095Z,8.48
2018-08-30T15:02:10.172Z,9.13
2018-08-30T15:03:16.136Z,8.90
2018-08-30T15:04:22.719Z,9.25
2018-08-30T15:05:28.955Z,8.10
2018-08-30T15:06:34.995Z,9.75
2018-08-30T15:07:41.105Z,8.93
2018-08-30T15:08:47.193Z,9.60
2018-08-30T15:09:53.262Z,8.48
2018-08-30T15:10:59.340Z,10.88
2018-08-30T15:12:05.416Z,11.38
2018-08-30T15:13:11.406Z,10.32
2018-08-30T15:14:17.488Z,9.85
2018-08-30T15:15:23.562Z,10.65
2018-08-30T15:16:29.668Z,8.93
2018-08-30T15:17:35.699Z,9.43
2018-08-30T15:18:41.858Z,9.20
2018-08-30T15:19:48.795Z,8.63
2018-08-30T15:20:55.035Z,9.27
2018-08-30T15:22:01.092Z,8.10
2018-08-30T15:23:07.183Z,9.13
2018-08-30T15:24:13.431Z,8.02
2018-08-30T15:25:19.501Z,9.15
2018-08-30T15:26:25.788Z,9.50
2018-08-30T15:27:31.865Z,8.50
2018-08-30T15:28:37.936Z,8.40
2018-08-30T15:29:44.058Z,8.82
2018-08-30T15:30:50.310Z,7.80
2018-08-30T15:31:56.326Z,8.32
2018-08-30T15:33:02.351Z,8.30
2018-08-30T15:34:08.423Z,8.40
2018-08-30T15:35:14.479Z,9.43
2018-08-30T15:36:20.799Z,9.18
2018-08-30T15:37:26.896Z,8.68